Time;durP1;ratioP1;P1;durP2;ratioP2;P2;SDS_P1;SDS_P2;PMS_P1;PMS_P2;Temp;Humidity;BMP_temperature;BMP_pressure;BME280_temperature;BME280_humidity;BME280_pressure;Samples;Min_cycle;Max_cycle;Signal;HPM_P1;HPM_P2
2021/05/21 00:00:06;;;;;;;0.50;0.50;;;;;;;10.38;62.17;96758.34;29395;199;63009;-59
2021/05/21 00:00:38;;;;;;;0.50;0.50;;;;;;;10.36;62.42;96752.41;29395;347;63004;-59
2021/05/21 00:01:09;;;;;;;0.60;0.60;;;;;;;10.33;62.74;96761.94;29395;255;63009;-59
2021/05/21 00:01:41;;;;;;;0.50;0.50;;;;;;;10.31;62.84;96752.50;29395;234;63003;-59
2021/05/21 00:02:12;;;;;;;0.50;0.50;;;;;;;10.27;62.71;96751.47;29394;202;64009;-59
2021/05/21 00:02:43;;;;;;;0.60;0.60;;;;;;;10.23;62.89;96750.44;29394;221;64004;-58
2021/05/21 00:03:16;;;;;;;0.60;0.60;;;;;;;10.23;62.98;96756.66;29395;202;63008;-56
2021/05/21 00:03:48;;;;;;;0.55;0.55;;;;;;;10.21;62.91;96755.34;29395;227;63005;-58
2021/05/21 00:04:19;;;;;;;0.60;0.60;;;;;;;10.21;62.96;96753.44;29396;220;63009;-58
2021/05/21 00:04:52;;;;;;;0.50;0.50;;;;;;;10.20;62.84;96756.44;29396;222;63005;-58
2021/05/21 00:05:23;;;;;;;0.50;0.50;;;;;;;10.18;63.26;96750.47;29396;219;63009;-58
2021/05/21 00:05:55;;;;;;;0.60;0.60;;;;;;;10.14;63.62;96752.16;29396;224;63005;-58
2021/05/21 00:06:27;;;;;;;0.60;0.60;;;;;;;10.12;63.56;96754.34;29396;224;63005;-58
2021/05/21 00:06:58;;;;;;;0.50;0.50;;;;;;;10.08;63.35;96754.94;29396;226;63005;-59
2021/05/21 00:07:29;;;;;;;0.50;0.50;;;;;;;10.12;63.81;96755.16;29396;231;63009;-58
2021/05/21 00:08:00;;;;;;;0.50;0.50;;;;;;;10.12;63.55;96760.59;29395;224;64004;-59
2021/05/21 00:08:32;;;;;;;0.60;0.60;;;;;;;10.14;63.18;96757.59;29396;268;63009;-58
2021/05/21 00:09:05;;;;;;;0.50;0.50;;;;;;;10.12;63.70;96757.06;29396;226;63004;-58
2021/05/21 00:09:36;;;;;;;0.50;0.50;;;;;;;10.09;63.65;96751.12;29396;204;63009;-58
2021/05/21 00:10:08;;;;;;;0.50;0.50;;;;;;;10.07;63.77;96747.91;29396;198;63004;-58
2021/05/21 00:10:39;;;;;;;0.50;0.50;;;;;;;10.06;63.70;96748.19;29396;244;63008;-58
2021/05/21 00:11:10;;;;;;;0.50;0.50;;;;;;;10.03;63.73;96757.75;29396;228;63005;-58
2021/05/21 00:11:41;;;;;;;0.50;0.50;;;;;;;10.01;63.68;96746.37;29396;234;63009;-58
2021/05/21 00:12:12;;;;;;;0.60;0.60;;;;;;;10.01;63.85;96753.72;29396;241;63005;-58
2021/05/21 00:12:43;;;;;;;0.50;0.50;;;;;;;10.00;64.15;96757.53;29396;202;63009;-61
2021/05/21 00:13:14;;;;;;;0.50;0.50;;;;;;;9.98;64.30;96748.88;29395;209;64005;-59
2021/05/21 00:13:46;;;;;;;0.70;0.70;;;;;;;10.04;64.26;96751.22;29396;248;63009;-58
2021/05/21 00:14:18;;;;;;;0.50;0.50;;;;;;;10.05;63.86;96750.09;29395;210;64005;-58
2021/05/21 00:14:49;;;;;;;0.57;0.57;;;;;;;10.04;63.96;96753.94;29396;245;63009;-58
2021/05/21 00:15:21;;;;;;;0.50;0.50;;;;;;;10.03;63.80;96748.81;29396;321;63004;-58
2021/05/21 00:15:52;;;;;;;0.50;0.50;;;;;;;10.04;63.87;96750.41;29396;222;63009;-58
2021/05/21 00:16:23;;;;;;;0.50;0.50;;;;;;;10.03;64.61;96757.75;29396;269;63004;-58
2021/05/21 00:16:55;;;;;;;0.60;0.60;;;;;;;10.02;64.38;96744.47;29396;276;63009;-59
2021/05/21 00:17:26;;;;;;;0.60;0.60;;;;;;;9.99;64.57;96748.59;29396;367;63004;-59
2021/05/21 00:17:57;;;;;;;0.60;0.60;;;;;;;9.98;64.65;96759.72;29396;211;63008;-58
2021/05/21 00:18:28;;;;;;;0.60;0.60;;;;;;;9.97;64.59;96747.25;29396;199;63005;-58
2021/05/21 00:18:59;;;;;;;0.50;0.50;;;;;;;9.99;64.16;96750.47;29396;242;63009;-59
2021/05/21 00:19:32;;;;;;;0.50;0.50;;;;;;;9.99;64.45;96756.72;29395;249;64005;-59
2021/05/21 00:20:05;;;;;;;0.50;0.50;;;;;;;10.01;64.27;96754.53;29396;256;63009;-57
2021/05/21 00:20:36;;;;;;;0.50;0.50;;;;;;;10.01;64.47;96753.72;29396;208;63009;-58
2021/05/21 00:21:08;;;;;;;0.50;0.50;;;;;;;9.98;64.58;96744.25;29396;266;63009;-57
2021/05/21 00:21:39;;;;;;;0.50;0.50;;;;;;;9.99;64.13;96745.87;29396;359;63005;-59
2021/05/21 00:22:10;;;;;;;0.50;0.50;;;;;;;10.00;63.93;96742.06;29396;218;63009;-57
2021/05/21 00:22:42;;;;;;;0.50;0.50;;;;;;;9.99;64.12;96743.16;29396;210;63004;-58
2021/05/21 00:23:13;;;;;;;0.50;0.50;;;;;;;9.97;63.92;96739.94;29396;199;63009;-57
2021/05/21 00:23:44;;;;;;;0.50;0.50;;;;;;;9.96;64.29;96746.44;29396;205;63004;-59
2021/05/21 00:24:15;;;;;;;0.50;0.50;;;;;;;9.95;64.34;96744.84;29396;199;63009;-58
2021/05/21 00:24:46;;;;;;;0.50;0.50;;;;;;;9.98;63.93;96746.97;29395;230;64004;-58
2021/05/21 00:25:17;;;;;;;0.50;0.50;;;;;;;10.02;63.89;96744.47;29396;239;63014;-58
2021/05/21 00:25:49;;;;;;;0.50;0.50;;;;;;;10.02;64.04;96744.47;29396;201;63004;-58
2021/05/21 00:26:20;;;;;;;0.50;0.50;;;;;;;10.01;64.07;96732.03;29396;217;63009;-58
2021/05/21 00:26:51;;;;;;;0.50;0.50;;;;;;;10.03;63.96;96736.06;29396;254;63005;-60
2021/05/21 00:27:22;;;;;;;0.50;0.50;;;;;;;10.02;64.03;96737.16;29395;223;64009;-58
2021/05/21 00:27:53;;;;;;;0.50;0.50;;;;;;;10.07;63.52;96736.25;29396;208;63005;-57
2021/05/21 00:28:25;;;;;;;0.50;0.50;;;;;;;10.11;63.37;96736.47;29396;211;63009;-57
2021/05/21 00:28:56;;;;;;;0.50;0.50;;;;;;;10.10;63.39;96724.81;29396;260;63014;-57
2021/05/21 00:29:27;;;;;;;0.50;0.50;;;;;;;10.06;63.41;96730.03;29396;220;63009;-58
2021/05/21 00:29:59;;;;;;;0.50;0.50;;;;;;;10.03;64.45;96730.63;29396;242;63005;-58
2021/05/21 00:30:30;;;;;;;0.50;0.50;;;;;;;10.00;64.39;96725.81;29395;214;64009;-58
2021/05/21 00:31:01;;;;;;;0.50;0.50;;;;;;;9.99;64.17;96721.47;29396;250;63004;-58
2021/05/21 00:31:33;;;;;;;0.50;0.50;;;;;;;10.00;64.31;96717.66;29395;277;64009;-58
2021/05/21 00:32:05;;;;;;;0.50;0.50;;;;;;;9.98;64.46;96717.16;29396;243;63004;-58
2021/05/21 00:32:36;;;;;;;0.50;0.50;;;;;;;9.99;64.23;96712.53;29396;234;63009;-58
2021/05/21 00:33:08;;;;;;;0.50;0.50;;;;;;;9.99;63.78;96718.75;29395;232;64004;-58
2021/05/21 00:33:42;;;;;;;0.50;0.50;;;;;;;9.97;63.74;96720.97;29396;245;63009;-60
2021/05/21 00:34:13;;;;;;;0.50;0.50;;;;;;;9.95;63.68;96716.94;29396;235;63005;-57
2021/05/21 00:34:44;;;;;;;0.50;0.50;;;;;;;9.94;63.75;96716.13;29396;231;63009;-59
2021/05/21 00:35:16;;;;;;;0.50;0.50;;;;;;;9.95;64.21;96719.62;29396;241;63005;-58
2021/05/21 00:35:47;;;;;;;0.60;0.60;;;;;;;9.94;64.08;96718.03;29396;272;63009;-59
2021/05/21 00:36:18;;;;;;;0.50;0.50;;;;;;;9.97;63.48;96714.72;29395;214;64005;-59
2021/05/21 00:36:53;;;;;;;0.57;0.57;;;;;;;9.97;63.61;96712.81;29396;214;63009;-58
2021/05/21 00:37:24;;;;;;;0.50;0.50;;;;;;;10.05;63.38;96708.63;29396;204;63005;-57
2021/05/21 00:37:56;;;;;;;0.50;0.50;;;;;;;10.17;62.71;96708.19;29396;213;63009;-59
2021/05/21 00:38:28;;;;;;;0.50;0.50;;;;;;;10.20;62.49;96707.63;29396;241;63004;-58
2021/05/21 00:38:59;;;;;;;0.50;0.50;;;;;;;10.16;62.79;96704.69;29396;227;63009;-60
2021/05/21 00:39:31;;;;;;;0.50;0.50;;;;;;;10.14;62.68;96706.06;29396;202;63004;-58
2021/05/21 00:40:02;;;;;;;0.50;0.50;;;;;;;10.15;63.23;96703.06;29396;227;63008;-57
2021/05/21 00:40:34;;;;;;;0.50;0.50;;;;;;;10.12;62.72;96702.84;29395;210;64004;-58
2021/05/21 00:41:05;;;;;;;0.50;0.50;;;;;;;10.15;62.83;96704.97;29396;214;63008;-57
2021/05/21 00:41:36;;;;;;;0.50;0.50;;;;;;;10.12;62.50;96705.56;29396;221;63004;-59
2021/05/21 00:42:08;;;;;;;0.50;0.50;;;;;;;10.11;62.91;96714.78;29396;229;63009;-58
2021/05/21 00:42:39;;;;;;;0.50;0.50;;;;;;;10.12;62.72;96713.69;29396;210;63005;-57
2021/05/21 00:43:10;;;;;;;0.50;0.50;;;;;;;10.13;62.43;96701.75;29396;202;63009;-60
2021/05/21 00:43:41;;;;;;;0.50;0.50;;;;;;;10.11;62.87;96703.94;29396;203;63005;-59
2021/05/21 00:44:13;;;;;;;0.50;0.50;;;;;;;10.12;62.77;96705.56;29396;247;63005;-57
2021/05/21 00:44:57;;;;;;;0.50;0.50;;;;;;;10.15;62.48;96704.97;29395;208;64004;-58
2021/05/21 00:45:28;;;;;;;0.50;0.50;;;;;;;10.27;62.00;96713.50;29396;237;63009;-57
2021/05/21 00:46:00;;;;;;;0.50;0.50;;;;;;;10.27;62.18;96714.31;29395;277;64004;-60
2021/05/21 00:46:32;;;;;;;0.50;0.50;;;;;;;10.26;61.99;96709.97;29396;202;63009;-58
2021/05/21 00:47:04;;;;;;;0.50;0.50;;;;;;;10.26;62.62;96706.47;29396;204;63004;-57
2021/05/21 00:47:35;;;;;;;0.50;0.50;;;;;;;10.22;62.30;96700.81;29396;198;63008;-58
2021/05/21 00:48:10;;;;;;;0.50;0.50;;;;;;;10.20;62.78;96713.06;29396;246;64005;-58
2021/05/21 00:48:41;;;;;;;0.50;0.50;;;;;;;10.24;62.28;96708.66;29397;205;63009;-58
2021/05/21 00:49:17;;;;;;;0.50;0.50;;;;;;;10.24;62.39;96716.81;29397;209;63005;-57
2021/05/21 00:49:49;;;;;;;0.50;0.50;;;;;;;10.24;62.36;96708.66;29396;203;64009;-58
2021/05/21 00:50:20;;;;;;;0.50;0.50;;;;;;;10.19;62.56;96706.00;29397;214;63005;-59
2021/05/21 00:50:52;;;;;;;0.50;0.50;;;;;;;10.13;62.78;96710.69;29397;276;63009;-59
2021/05/21 00:51:24;;;;;;;0.50;0.50;;;;;;;10.09;64.00;96712.38;29397;240;63005;-58
2021/05/21 00:51:55;;;;;;;0.50;0.50;;;;;;;10.02;63.97;96707.34;29397;248;63009;-57
2021/05/21 00:52:28;;;;;;;0.50;0.50;;;;;;;10.02;63.77;96711.97;29396;256;64004;-58
2021/05/21 00:52:59;;;;;;;0.50;0.50;;;;;;;10.00;63.79;96706.81;29397;236;63009;-58
2021/05/21 00:53:32;;;;;;;0.50;0.50;;;;;;;9.99;63.72;96710.63;29397;217;63004;-57
2021/05/21 00:54:04;;;;;;;0.50;0.50;;;;;;;9.97;63.35;96707.41;29397;257;63009;-59
2021/05/21 00:54:36;;;;;;;0.50;0.50;;;;;;;9.98;63.56;96702.78;29397;246;63004;-57
2021/05/21 00:55:10;;;;;;;0.50;0.50;;;;;;;10.01;63.07;96702.22;29397;209;63004;-59
2021/05/21 00:55:42;;;;;;;0.50;0.50;;;;;;;10.06;63.16;96694.78;29397;209;63005;-59
2021/05/21 00:56:13;;;;;;;0.50;0.50;;;;;;;10.11;62.77;96693.09;29397;208;63009;-58
2021/05/21 00:56:45;;;;;;;0.50;0.50;;;;;;;10.18;62.52;96688.13;29396;273;64005;-58
2021/05/21 00:57:17;;;;;;;0.60;0.60;;;;;;;10.16;62.42;96685.69;29397;238;63016;-57
2021/05/21 00:57:48;;;;;;;0.50;0.50;;;;;;;10.20;62.45;96678.63;29397;246;63005;-59
2021/05/21 00:58:19;;;;;;;0.50;0.50;;;;;;;10.21;62.42;96674.00;29397;247;63023;-57
2021/05/21 00:58:51;;;;;;;0.50;0.50;;;;;;;10.22;62.45;96678.31;29397;237;63005;-57
2021/05/21 00:59:22;;;;;;;0.60;0.60;;;;;;;10.29;62.05;96684.19;29397;210;63005;-57
2021/05/21 00:59:54;;;;;;;0.50;0.50;;;;;;;10.25;62.49;96680.44;29397;222;63009;-58
2021/05/21 01:00:25;;;;;;;0.50;0.50;;;;;;;10.21;62.49;96682.12;29396;228;64009;-57
2021/05/21 01:00:57;;;;;;;0.50;0.50;;;;;;;10.25;62.06;96678.53;29397;220;63004;-57
2021/05/21 01:01:32;;;;;;;0.50;0.50;;;;;;;10.25;61.96;96675.03;29396;317;63009;-57
2021/05/21 01:02:05;;;;;;;1.02;1.02;;;;;;;10.26;62.05;96684.78;29396;336;63011;-58
2021/05/21 01:02:37;;;;;;;0.50;0.50;;;;;;;10.25;61.96;96678.53;29396;211;63008;-57
2021/05/21 01:03:08;;;;;;;0.50;0.50;;;;;;;10.25;62.38;96677.75;29396;327;63005;-59
2021/05/21 01:03:39;;;;;;;0.50;0.50;;;;;;;10.22;61.90;96679.13;29396;326;63009;-58
2021/05/21 01:04:12;;;;;;;0.50;0.50;;;;;;;10.27;62.09;96683.66;29396;214;63012;-59
2021/05/21 01:04:43;;;;;;;0.50;0.50;;;;;;;10.31;61.99;96681.97;29396;228;63009;-59
2021/05/21 01:05:15;;;;;;;0.50;0.50;;;;;;;10.30;61.84;96686.59;29395;226;64005;-57
2021/05/21 01:05:46;;;;;;;0.50;0.50;;;;;;;10.26;62.28;96679.34;29396;344;63009;-58
2021/05/21 01:06:18;;;;;;;0.50;0.50;;;;;;;10.24;62.41;96676.13;29396;226;63005;-58
2021/05/21 01:06:49;;;;;;;0.50;0.50;;;;;;;10.23;62.57;96672.59;29396;199;63009;-58
2021/05/21 01:07:20;;;;;;;1.33;1.33;;;;;;;10.25;62.15;96675.03;29396;215;63004;-58
2021/05/21 01:07:51;;;;;;;0.50;0.50;;;;;;;10.21;62.73;96671.28;29395;236;64009;-57
2021/05/21 01:08:23;;;;;;;0.50;0.50;;;;;;;10.18;62.70;96671.84;29396;220;63004;-58
2021/05/21 01:08:59;;;;;;;0.50;0.50;;;;;;;10.25;62.32;96669.59;29396;266;63009;-57
2021/05/21 01:09:30;;;;;;;0.50;0.50;;;;;;;10.24;62.00;96663.37;29396;209;63004;-57
2021/05/21 01:10:05;;;;;;;0.50;0.50;;;;;;;10.19;62.73;96668.03;29395;233;64008;-58
2021/05/21 01:10:36;;;;;;;0.50;0.50;;;;;;;10.14;62.36;96659.97;29396;209;63009;-57
2021/05/21 01:11:09;;;;;;;0.65;0.65;;;;;;;10.16;62.39;96658.59;29396;217;63009;-57
2021/05/21 01:11:40;;;;;;;0.50;0.50;;;;;;;10.19;61.85;96663.44;29396;231;63005;-57
2021/05/21 01:12:11;;;;;;;0.60;0.60;;;;;;;10.20;62.03;96664.25;29396;271;63009;-59
2021/05/21 01:12:43;;;;;;;0.50;0.50;;;;;;;10.16;62.26;96655.87;29396;351;63005;-58
2021/05/21 01:13:15;;;;;;;0.50;0.50;;;;;;;10.12;62.33;96652.12;29396;234;63009;-58
2021/05/21 01:13:47;;;;;;;0.50;0.50;;;;;;;10.09;62.32;96652.72;29396;200;63000;-57
2021/05/21 01:14:18;;;;;;;0.50;0.50;;;;;;;10.12;62.42;96640.50;29395;219;64009;-59
2021/05/21 01:14:52;;;;;;;0.50;0.50;;;;;;;10.14;62.59;96635.56;29396;233;63004;-59
2021/05/21 01:15:23;;;;;;;0.50;0.50;;;;;;;10.20;62.43;96631.72;29396;365;63009;-58
2021/05/21 01:15:54;;;;;;;0.50;0.50;;;;;;;10.19;62.19;96635.50;29396;230;63004;-57
2021/05/21 01:16:25;;;;;;;0.57;0.57;;;;;;;10.15;62.43;96637.19;29396;263;63009;-57
2021/05/21 01:17:00;;;;;;;0.50;0.50;;;;;;;10.13;62.55;96647.53;29396;205;63004;-58
2021/05/21 01:17:32;;;;;;;0.50;0.50;;;;;;;10.11;62.10;96657.84;29396;243;63008;-58
2021/05/21 01:18:06;;;;;;;0.50;0.50;;;;;;;10.11;62.61;96661.38;29396;228;63005;-57
2021/05/21 01:18:37;;;;;;;0.50;0.50;;;;;;;10.12;62.34;96664.88;29396;230;63009;-57
2021/05/21 01:19:08;;;;;;;0.55;0.55;;;;;;;10.15;62.38;96665.09;29396;286;63005;-57
2021/05/21 01:19:40;;;;;;;0.60;0.60;;;;;;;10.14;62.13;96657.28;29395;296;64009;-59
2021/05/21 01:20:13;;;;;;;0.50;0.50;;;;;;;10.09;62.40;96664.38;29396;236;63005;-59
2021/05/21 01:20:44;;;;;;;0.50;0.50;;;;;;;10.08;62.60;96662.75;29396;200;63009;-59
2021/05/21 01:21:16;;;;;;;0.60;0.60;;;;;;;10.13;62.18;96652.94;29395;204;64016;-58
2021/05/21 01:21:50;;;;;;;0.50;0.50;;;;;;;10.13;62.45;96655.66;29396;325;63009;-59
2021/05/21 01:22:22;;;;;;;0.50;0.50;;;;;;;10.13;62.43;96650.22;29396;270;63004;-58
2021/05/21 01:22:53;;;;;;;0.50;0.50;;;;;;;10.18;62.22;96650.16;29396;302;63009;-57
2021/05/21 01:23:24;;;;;;;0.60;0.60;;;;;;;10.22;62.09;96653.91;29396;248;63004;-57
2021/05/21 01:23:55;;;;;;;0.60;0.60;;;;;;;10.19;61.68;96651.78;29396;216;63009;-58
2021/05/21 01:24:26;;;;;;;0.50;0.50;;;;;;;10.12;62.62;96649.44;29396;266;63004;-59
2021/05/21 01:24:57;;;;;;;0.50;0.50;;;;;;;10.08;62.72;96657.34;29396;252;63008;-57
2021/05/21 01:25:29;;;;;;;0.50;0.50;;;;;;;10.07;62.63;96650.31;29396;254;63004;-58
2021/05/21 01:26:00;;;;;;;0.55;0.55;;;;;;;10.06;62.26;96653.31;29396;259;63009;-58
2021/05/21 01:26:34;;;;;;;0.50;0.50;;;;;;;10.07;62.06;96658.44;29395;228;64005;-58
2021/05/21 01:27:09;;;;;;;0.50;0.50;;;;;;;10.06;62.08;96661.44;29396;212;63009;-58
2021/05/21 01:27:40;;;;;;;0.50;0.50;;;;;;;10.06;62.67;96654.13;29396;240;63005;-57
2021/05/21 01:28:14;;;;;;;0.50;0.50;;;;;;;10.04;62.45;96659.06;29396;216;63009;-58
2021/05/21 01:28:46;;;;;;;0.50;0.50;;;;;;;10.09;62.57;96661.66;29396;215;63005;-59
2021/05/21 01:29:17;;;;;;;0.50;0.50;;;;;;;10.15;61.76;96656.16;29396;235;63005;-59
2021/05/21 01:29:48;;;;;;;0.50;0.50;;;;;;;10.16;62.17;96657.78;29396;228;63004;-59
2021/05/21 01:30:21;;;;;;;0.50;0.50;;;;;;;10.16;61.79;96652.34;29396;273;63009;-58
2021/05/21 01:30:52;;;;;;;0.50;0.50;;;;;;;10.12;62.41;96656.75;29395;219;64004;-59
2021/05/21 01:31:24;;;;;;;0.50;0.50;;;;;;;10.09;62.74;96656.25;29395;202;64009;-58
2021/05/21 01:31:55;;;;;;;0.57;0.57;;;;;;;10.12;62.34;96652.12;29396;213;63000;-58
2021/05/21 01:32:27;;;;;;;0.50;0.50;;;;;;;10.11;62.21;96655.16;29396;208;63008;-58
2021/05/21 01:33:09;;;;;;;0.50;0.50;;;;;;;10.07;62.59;96657.63;29396;220;63004;-58
2021/05/21 01:33:42;;;;;;;0.50;0.50;;;;;;;10.04;62.46;96661.78;29396;341;63009;-58
2021/05/21 01:34:14;;;;;;;0.50;0.50;;;;;;;10.01;63.08;96662.34;29396;203;63005;-59
2021/05/21 01:34:45;;;;;;;0.50;0.50;;;;;;;10.00;62.72;96666.16;29396;222;63009;-58
2021/05/21 01:35:18;;;;;;;0.50;0.50;;;;;;;10.00;62.67;96660.75;29396;244;63005;-58
2021/05/21 01:35:50;;;;;;;0.50;0.50;;;;;;;9.99;62.63;96659.12;29396;270;63009;-57
2021/05/21 01:36:21;;;;;;;0.50;0.50;;;;;;;10.02;62.35;96653.13;29395;249;64005;-57
2021/05/21 01:36:53;;;;;;;0.50;0.50;;;;;;;10.01;62.58;96651.50;29396;257;63009;-57
2021/05/21 01:37:24;;;;;;;0.50;0.50;;;;;;;10.05;62.33;96652.50;29396;200;63004;-58
2021/05/21 01:37:55;;;;;;;0.57;0.57;;;;;;;10.06;61.97;96651.41;29396;250;63009;-58
2021/05/21 01:38:27;;;;;;;0.60;0.60;;;;;;;10.09;61.79;96650.81;29396;247;63004;-57
2021/05/21 01:39:07;;;;;;;0.60;0.60;;;;;;;10.06;62.09;96651.41;29396;275;63009;-58
2021/05/21 01:39:39;;;;;;;0.50;0.50;;;;;;;10.08;62.51;96657.34;29440;196;63004;-58
2021/05/21 01:40:11;;;;;;;0.50;0.50;;;;;;;10.09;62.33;96647.31;29375;215;63008;-57
2021/05/21 01:40:44;;;;;;;0.50;0.50;;;;;;;10.09;61.94;96648.09;29396;210;63005;-58
2021/05/21 01:41:15;;;;;;;0.50;0.50;;;;;;;10.08;61.90;96646.50;29395;210;64009;-58
2021/05/21 01:41:48;;;;;;;0.50;0.50;;;;;;;10.08;61.89;96651.91;29396;202;63005;-59
2021/05/21 01:42:20;;;;;;;0.60;0.60;;;;;;;10.06;61.83;96646.00;29396;254;63009;-58
2021/05/21 01:42:51;;;;;;;0.50;0.50;;;;;;;10.09;62.16;96647.31;29396;211;63005;-57
2021/05/21 01:43:24;;;;;;;0.50;0.50;;;;;;;10.07;62.12;96639.47;29396;209;63005;-57
2021/05/21 01:43:56;;;;;;;0.50;0.50;;;;;;;10.05;62.14;96641.66;29396;213;63013;-57
2021/05/21 01:44:28;;;;;;;0.50;0.50;;;;;;;10.07;61.81;96644.88;29396;197;63009;-58
2021/05/21 01:45:03;;;;;;;0.50;0.50;;;;;;;10.09;61.95;96639.16;29396;222;63004;-57
2021/05/21 01:45:39;;;;;;;0.50;0.50;;;;;;;10.09;61.69;96637.28;29396;248;63009;-57
2021/05/21 01:46:11;;;;;;;0.50;0.50;;;;;;;10.17;61.52;96638.50;29396;220;63004;-57
2021/05/21 01:46:46;;;;;;;0.50;0.50;;;;;;;10.20;61.53;96637.16;29395;222;64008;-59
2021/05/21 01:47:17;;;;;;;0.50;0.50;;;;;;;10.19;61.88;96635.50;29396;205;63004;-57
2021/05/21 01:47:49;;;;;;;0.50;0.50;;;;;;;10.14;62.06;96632.87;29396;204;63008;-58
2021/05/21 01:48:21;;;;;;;0.50;0.50;;;;;;;10.08;62.05;96638.38;29396;197;63005;-57
2021/05/21 01:48:52;;;;;;;0.50;0.50;;;;;;;10.06;61.66;96637.84;29396;202;63009;-58
2021/05/21 01:49:23;;;;;;;0.50;0.50;;;;;;;10.04;62.40;96637.38;29396;216;63005;-58
2021/05/21 01:49:55;;;;;;;0.50;0.50;;;;;;;10.01;62.11;96629.03;29396;220;63009;-59
2021/05/21 01:50:27;;;;;;;0.50;0.50;;;;;;;10.02;62.21;96634.16;29396;220;63005;-57
2021/05/21 01:51:03;;;;;;;0.50;0.50;;;;;;;10.02;61.88;96636.88;29396;208;63009;-57
2021/05/21 01:51:50;;;;;;;0.50;0.50;;;;;;;10.00;62.43;96633.63;29397;217;63004;-58
2021/05/21 01:52:21;;;;;;;0.50;0.50;;;;;;;10.00;62.39;96639.06;29395;202;64009;-57
2021/05/21 01:52:52;;;;;;;0.50;0.50;;;;;;;10.05;62.17;96641.66;29397;206;63004;-58
2021/05/21 01:53:23;;;;;;;0.50;0.50;;;;;;;10.06;61.89;96637.84;29397;206;63009;-58
2021/05/21 01:54:17;;;;;;;0.50;0.50;;;;;;;10.08;62.16;96635.66;29397;250;63004;-58
2021/05/21 01:54:48;;;;;;;0.60;0.60;;;;;;;10.16;61.73;96636.09;29395;317;63008;-58
2021/05/21 01:55:19;;;;;;;0.50;0.50;;;;;;;10.20;61.66;96640.66;29395;220;63005;-57
2021/05/21 01:55:51;;;;;;;0.50;0.50;;;;;;;10.21;61.14;96627.91;29394;204;64009;-58
2021/05/21 01:56:24;;;;;;;0.60;0.60;;;;;;;10.22;61.47;96634.94;29395;248;63005;-60
2021/05/21 01:56:56;;;;;;;0.50;0.50;;;;;;;10.22;61.38;96629.53;29395;240;63009;-58
2021/05/21 01:57:28;;;;;;;0.50;0.50;;;;;;;10.22;61.49;96629.53;29395;235;63005;-58
2021/05/21 01:57:59;;;;;;;0.50;0.50;;;;;;;10.22;61.26;96632.22;29393;252;64009;-59
2021/05/21 01:58:31;;;;;;;0.50;0.50;;;;;;;10.18;61.96;96631.97;29395;215;63005;-59
2021/05/21 01:59:03;;;;;;;0.50;0.50;;;;;;;10.14;61.66;96632.87;29395;197;63009;-57
2021/05/21 01:59:34;;;;;;;0.50;0.50;;;;;;;10.22;61.36;96634.94;29395;216;63004;-59
2021/05/21 02:00:08;;;;;;;0.50;0.50;;;;;;;10.31;60.94;96627.75;29395;206;63009;-58
2021/05/21 02:00:39;;;;;;;0.50;0.50;;;;;;;10.30;61.01;96629.66;29393;211;64004;-57
2021/05/21 02:01:10;;;;;;;0.50;0.50;;;;;;;10.28;61.02;96628.34;29395;245;63009;-58
2021/05/21 02:01:41;;;;;;;0.50;0.50;;;;;;;10.25;61.26;96628.94;29395;224;63008;-58
2021/05/21 02:02:13;;;;;;;0.50;0.50;;;;;;;10.26;61.09;96627.81;29395;218;63008;-59
2021/05/21 02:02:44;;;;;;;0.50;0.50;;;;;;;10.26;61.02;96630.53;29395;227;63005;-58
2021/05/21 02:03:15;;;;;;;0.50;0.50;;;;;;;10.28;60.92;96625.63;29395;203;63009;-58
2021/05/21 02:03:46;;;;;;;0.50;0.50;;;;;;;10.36;60.76;96631.19;29395;219;63005;-57
2021/05/21 02:04:37;;;;;;;0.50;0.50;;;;;;;10.40;60.59;96618.59;29395;254;63009;-57
2021/05/21 02:05:10;;;;;;;0.50;0.50;;;;;;;10.33;60.46;96623.63;29439;221;63005;-57
2021/05/21 02:05:41;;;;;;;0.50;0.50;;;;;;;10.32;60.44;96618.50;29393;199;64009;-58
2021/05/21 02:06:12;;;;;;;0.50;0.50;;;;;;;10.31;60.84;96620.41;29395;202;63005;-59
2021/05/21 02:06:43;;;;;;;0.50;0.50;;;;;;;10.27;61.03;96624.81;29395;207;63009;-57
2021/05/21 02:07:16;;;;;;;0.50;0.50;;;;;;;10.26;60.76;96615.06;29395;196;63004;-57
2021/05/21 02:07:48;;;;;;;0.50;0.50;;;;;;;10.24;60.76;96619.19;29395;202;63009;-58
2021/05/21 02:08:22;;;;;;;0.50;0.50;;;;;;;10.25;61.24;96623.50;29395;212;63004;-58
2021/05/21 02:08:54;;;;;;;0.50;0.50;;;;;;;10.19;61.10;96619.22;29395;225;63009;-58
2021/05/21 02:09:25;;;;;;;0.50;0.50;;;;;;;10.13;61.78;96625.84;29395;201;63004;-58
2021/05/21 02:10:05;;;;;;;0.50;0.50;;;;;;;10.14;61.29;96624.72;29395;203;63008;-58
2021/05/21 02:10:36;;;;;;;0.50;0.50;;;;;;;10.12;61.60;96618.81;29393;209;64005;-59
2021/05/21 02:11:07;;;;;;;0.50;0.50;;;;;;;10.08;61.86;96619.38;29395;220;63009;-59
2021/05/21 02:11:38;;;;;;;0.50;0.50;;;;;;;10.04;62.17;96618.41;29394;233;64005;-58
2021/05/21 02:12:10;;;;;;;0.60;0.60;;;;;;;10.06;61.58;96621.59;29395;207;63009;-58
2021/05/21 02:12:44;;;;;;;0.50;0.50;;;;;;;10.10;61.68;96619.09;29395;208;63005;-58
2021/05/21 02:13:16;;;;;;;0.50;0.50;;;;;;;10.15;61.27;96618.22;29393;203;64009;-59
2021/05/21 02:13:47;;;;;;;0.50;0.50;;;;;;;10.17;61.33;96621.44;29395;246;63005;-57
2021/05/21 02:14:19;;;;;;;0.50;0.50;;;;;;;10.15;61.31;96619.00;29395;252;63009;-57
2021/05/21 02:14:51;;;;;;;0.50;0.50;;;;;;;10.17;61.45;96616.00;29395;329;63004;-57
2021/05/21 02:15:22;;;;;;;0.50;0.50;;;;;;;10.14;61.55;96617.41;29395;202;63009;-58
2021/05/21 02:15:53;;;;;;;0.50;0.50;;;;;;;10.09;61.68;96623.72;29395;199;63004;-58
2021/05/21 02:16:25;;;;;;;0.50;0.50;;;;;;;10.09;61.50;96614.78;29395;220;63009;-58
2021/05/21 02:16:56;;;;;;;0.60;0.60;;;;;;;10.09;61.75;96615.59;29395;213;63004;-58
2021/05/21 02:17:27;;;;;;;0.50;0.50;;;;;;;10.11;61.53;96611.78;29393;215;64008;-58
2021/05/21 02:17:59;;;;;;;0.50;0.50;;;;;;;10.07;61.65;96609.66;29394;248;63005;-57
2021/05/21 02:18:30;;;;;;;0.50;0.50;;;;;;;10.05;61.50;96619.97;29395;228;63009;-58
2021/05/21 02:19:02;;;;;;;0.50;0.50;;;;;;;10.03;61.73;96616.78;29395;229;63005;-57
2021/05/21 02:19:33;;;;;;;0.50;0.50;;;;;;;9.99;62.12;96615.78;29395;209;63009;-57
2021/05/21 02:20:06;;;;;;;0.50;0.50;;;;;;;10.04;61.61;96612.97;29395;212;63005;-59
2021/05/21 02:20:38;;;;;;;0.50;0.50;;;;;;;10.04;61.73;96612.19;29395;264;63009;-59
2021/05/21 02:21:09;;;;;;;0.50;0.50;;;;;;;10.05;61.65;96611.84;29395;220;63005;-58
2021/05/21 02:21:44;;;;;;;0.57;0.57;;;;;;;10.04;61.93;96606.75;29393;218;64009;-59
2021/05/21 02:22:20;;;;;;;0.60;0.60;;;;;;;10.00;62.02;96601.13;29393;234;64004;-59
2021/05/21 02:22:52;;;;;;;0.50;0.50;;;;;;;9.99;62.32;96606.81;29395;203;63009;-58
2021/05/21 02:23:23;;;;;;;0.50;0.50;;;;;;;9.98;62.38;96606.03;29395;211;63004;-59
2021/05/21 02:23:54;;;;;;;0.60;0.60;;;;;;;10.09;61.98;96602.03;29395;231;63009;-58
2021/05/21 02:24:25;;;;;;;0.60;0.60;;;;;;;10.13;61.59;96593.31;29395;219;63004;-58
2021/05/21 02:24:58;;;;;;;0.60;0.60;;;;;;;10.11;61.73;96595.50;29395;208;63008;-57
2021/05/21 02:25:30;;;;;;;0.50;0.50;;;;;;;10.12;61.65;96602.53;29395;226;63005;-57
2021/05/21 02:26:02;;;;;;;0.50;0.50;;;;;;;10.16;61.29;96590.00;29395;207;63009;-58
2021/05/21 02:26:34;;;;;;;0.60;0.60;;;;;;;10.16;61.62;96587.28;29395;204;63005;-56
2021/05/21 02:27:06;;;;;;;0.60;0.60;;;;;;;10.20;61.40;96588.34;29394;213;64009;-58
2021/05/21 02:27:38;;;;;;;0.60;0.60;;;;;;;10.23;61.27;96582.31;29394;202;63995;-58
2021/05/21 02:28:09;;;;;;;0.60;0.60;;;;;;;10.21;61.32;96589.94;29395;208;63009;-57
2021/05/21 02:28:41;;;;;;;0.55;0.55;;;;;;;10.18;61.74;96593.22;29395;238;63005;-58
2021/05/21 02:29:12;;;;;;;0.60;0.60;;;;;;;10.18;61.14;96590.50;29395;237;63009;-59
2021/05/21 02:29:44;;;;;;;15.60;8.50;;;;;;;10.15;62.00;96591.91;29390;197;64001;-59
2021/05/21 02:30:16;;;;;;;0.60;0.60;;;;;;;10.08;61.87;96597.72;29395;219;63009;-57
2021/05/21 02:30:48;;;;;;;0.60;0.60;;;;;;;10.09;62.14;96593.87;29395;197;63004;-58
2021/05/21 02:31:19;;;;;;;3.00;2.90;;;;;;;10.08;61.81;96592.28;29395;221;63009;-57
2021/05/21 02:31:50;;;;;;;0.60;0.60;;;;;;;10.08;62.17;96596.91;29395;204;63004;-59
2021/05/21 02:32:22;;;;;;;0.60;0.60;;;;;;;10.09;61.80;96587.66;29394;208;64008;-57
2021/05/21 02:32:55;;;;;;;0.60;0.60;;;;;;;10.07;61.96;96590.66;29395;207;63005;-58